Flight Track Log - Related Links

Times and Time Zones

All times are in EDT time to prevent confusion due to time zone crossing. See the UAL5915 flight status page for this flight to view local times or setup timezone preferences in your user account.

Time Position Orientation Groundspeed Altitude Reporting Facility
EDT Latitude Longitude Course Direction KTS MPH feet Rate Location/Type
Fri 01:45:56 PM 36.1944 -95.9022 267° West 144 166 1,300  Level Kansas City Center
Fri 01:47:21 PM 36.1911 -95.9769 267° West 175 201 4,300 2,260 Climbing Kansas City Center
Fri 01:48:22 PM 36.1336 -96.0008 199° South 281 323 6,800 2,274 Climbing Kansas City Center
Fri 01:49:25 PM 36.1167 -95.9072 103° East 268 308 9,000 2,315 Climbing Kansas City Center
Fri 01:50:29 PM 36.1067 -95.8103 97° East 277 319 11,700 2,352 Climbing Kansas City Center
Fri 01:51:30 PM 36.0967 -95.7075 97° East 288 331 13,900 1,584 Climbing Kansas City Center
Fri 01:52:34 PM 36.0850 -95.5989 98° East 309 356 15,000 532 Climbing Kansas City Center
Fri 01:53:34 PM 36.0683 -95.4422 97° East 373 429 15,000 689 Level Kansas City Center
Fri 01:54:36 PM 36.0544 -95.3064 97° East 394 453 16,400 1,474 Climbing Kansas City Center
Fri 01:56:29 PM 36.0264 -95.0561 98° East 397 457 19,300 1,595 Climbing Memphis Center
Fri 01:57:29 PM 36.0231 -94.9200 92° East 397 457 21,000 1,587 Climbing Memphis Center
Fri 01:58:30 PM 36.0281 -94.7842 87° East 397 457 22,500 1,550 Climbing Memphis Center
Fri 01:59:29 PM 36.0328 -94.6458 88° East 402 463 24,100 1,542 Climbing Memphis Center
Fri 02:01:29 PM 36.0442 -94.3642 87° East 402 463 27,100 1,500 Climbing Memphis Center
Fri 02:02:29 PM 36.0486 -94.2231 88° East 402 463 28,600 1,400 Climbing Memphis Center
Fri 02:03:29 PM 36.0550 -94.0850 87° East 402 463 29,900 1,250 Climbing Memphis Center
Fri 02:04:29 PM 36.0556 -93.9258 90° East 409 471 31,100 1,240 Climbing Memphis Center
Fri 02:05:30 PM 36.0617 -93.7847 87° East 409 471 32,400 1,100 Climbing Memphis Center
Fri 02:06:29 PM 36.0628 -93.6589 89° East 409 471 33,300 857 Climbing Memphis Center
Fri 02:07:29 PM 36.0686 -93.5156 87° East 409 471 34,100 700 Climbing Memphis Center
Fri 02:08:29 PM 36.0722 -93.3692 88° East 414 476 34,700 450 Climbing Memphis Center
Fri 02:09:29 PM 36.0739 -93.2178 89° East 425 489 35,000 150 Climbing Memphis Center
Fri 02:10:29 PM 36.0794 -93.0614 87° East 441 507 35,000  Level Memphis Center
Fri 02:11:29 PM 36.0828 -92.8944 89° East 463 533 35,000  Level Memphis Center
Fri 02:12:29 PM 36.0861 -92.7250 89° East 484 557 35,000  Level Memphis Center
Fri 02:13:29 PM 36.0894 -92.5506 89° East 495 570 35,000  Level Memphis Center
Fri 02:14:29 PM 36.0922 -92.3758 89° East 501 577 35,000  Level Memphis Center
Fri 02:15:29 PM 36.0950 -92.2014 89° East 501 577 35,000  Level Memphis Center
Fri 02:16:29 PM 36.0936 -92.0086 90° East 501 577 35,000  Level Memphis Center
Fri 02:17:29 PM 36.0978 -91.8367 88° East 501 577 35,000  Level Memphis Center
Fri 02:18:29 PM 36.0978 -91.6594 90° East 501 577 35,000  Level Memphis Center
Fri 02:19:30 PM 36.1014 -91.4872 88° East 506 582 35,000  Level Memphis Center
Fri 02:20:29 PM 36.1050 -91.3153 88° East 501 577 35,000  Level Memphis Center
Fri 02:21:29 PM 36.1019 -91.1406 91° East 496 571 35,000  Level Memphis Center
Fri 02:22:29 PM 36.1072 -90.9708 88° East 496 571 35,000  Level Memphis Center
Fri 02:23:29 PM 36.1100 -90.7989 89° East 496 571 35,000  Level Memphis Center
Fri 02:24:29 PM 36.1144 -90.6267 88° East 496 571 35,000  Level Memphis Center
Fri 02:25:29 PM 36.1169 -90.4519 89° East 496 571 35,000  Level Memphis Center
Fri 02:26:29 PM 36.1211 -90.2825 88° East 496 571 35,000  Level Memphis Center
Fri 02:27:29 PM 36.1250 -90.1103 88° East 496 571 35,000  Level Memphis Center
Fri 02:28:29 PM 36.1350 -89.9433 86° East 496 571 35,000 -300 Level Memphis Center
Fri 02:29:29 PM 36.1300 -89.7633 92° East 496 571 34,400 -850 Descending Memphis Center
Fri 02:30:29 PM 36.1311 -89.5911 89° East 496 571 33,300 -700 Descending Memphis Center
Fri 02:31:29 PM 36.1342 -89.4217 89° East 496 571 33,000 150 Descending Memphis Center
Fri 02:32:29 PM 36.1347 -89.2519 90° East 496 571 33,600 500 Climbing Memphis Center
Fri 02:33:29 PM 36.1375 -89.0822 89° East 496 571 34,000 300 Climbing Memphis Center
Fri 02:34:29 PM 36.1417 -88.9125 88° East 496 571 34,200 500 Climbing Memphis Center
Fri 02:35:29 PM 36.1439 -88.7378 89° East 496 571 35,000 400 Climbing Memphis Center
Fri 02:36:29 PM 36.1478 -88.5808 88° East 503 579 35,000  Level Memphis Center
Fri 02:37:29 PM 36.1994 -88.4100 69° East 508 585 35,000  Level Memphis Center
Fri 02:38:29 PM 36.2614 -88.2411 65° Northeast 519 597 35,000  Level Memphis Center
Fri 02:39:29 PM 36.3228 -88.0619 67° East 519 597 35,000  Level Memphis Center
Fri 02:40:29 PM 36.3822 -87.8953 66° East 519 597 35,000  Level Memphis Center
Fri 02:41:29 PM 36.4414 -87.7308 66° East 519 597 35,000  Level Memphis Center
Fri 02:42:29 PM 36.5003 -87.5639 66° East 519 597 35,000  Level Memphis Center
Fri 02:43:29 PM 36.5589 -87.3989 66° East 519 597 35,000  Level Memphis Center
Fri 02:44:29 PM 36.6117 -87.2497 66° East 525 604 35,000  Level Memphis Center
Fri 02:45:29 PM 36.6697 -87.0819 67° East 520 598 35,000  Level Memphis Center
Fri 02:46:29 PM 36.7278 -86.9114 67° East 520 598 35,000  Level Memphis Center
Fri 02:47:30 PM 36.7914 -86.7297 66° East 520 598 35,000  Level Memphis Center
Fri 02:48:29 PM 36.8486 -86.5561 68° East 525 604 35,000  Level Memphis Center
Fri 02:49:29 PM 36.9078 -86.3847 67° East 525 604 35,000  Level Memphis Center
Fri 02:50:29 PM 36.9647 -86.2131 67° East 525 604 35,000  Level Memphis Center
Fri 02:52:03 PM 37.0506 -85.9592 67° East 536 617 35,000  Level Indianapolis Center
Fri 02:53:05 PM 37.1083 -85.7844 67° East 537 618 35,000  Level Indianapolis Center
Fri 02:54:07 PM 37.1656 -85.6100 68° East 537 618 35,000  Level Indianapolis Center
Fri 02:55:09 PM 37.2269 -85.4281 67° East 534 615 35,000  Level Indianapolis Center
Fri 02:56:10 PM 37.2844 -85.2553 67° East 536 617 35,000  Level Indianapolis Center
Fri 02:57:12 PM 37.3411 -85.0808 68° East 539 620 35,000  Level Indianapolis Center
Fri 02:58:14 PM 37.4047 -84.8778 68° East 536 617 35,000  Level Indianapolis Center
Fri 02:59:16 PM 37.4589 -84.7044 68° East 534 615 35,000  Level Indianapolis Center
Fri 03:00:17 PM 37.5150 -84.5331 68° East 532 612 35,000 439 Level Indianapolis Center
Fri 03:01:19 PM 37.5667 -84.3617 69° East 524 603 35,900 677 Climbing Indianapolis Center
Fri 03:02:21 PM 37.6228 -84.1889 68° East 529 609 36,400 537 Climbing Indianapolis Center
Fri 03:03:22 PM 37.6772 -84.0164 68° East 529 609 37,000 293 Climbing Indianapolis Center
Fri 03:04:24 PM 37.7311 -83.8425 69° East 531 611 37,000  Level Indianapolis Center
Fri 03:05:26 PM 37.7944 -83.6372 69° East 537 618 37,000  Level Indianapolis Center
Fri 03:06:28 PM 37.8469 -83.4631 69° East 527 606 37,000  Level Indianapolis Center
Fri 03:07:29 PM 37.9003 -83.2906 69° East 527 606 37,000  Level Indianapolis Center
Fri 03:08:31 PM 37.9525 -83.1181 69° East 523 602 37,000  Level Indianapolis Center
Fri 03:09:33 PM 38.0017 -82.9517 69° East 509 586 37,000  Level Indianapolis Center
Fri 03:10:35 PM 38.0528 -82.7858 69° East 503 579 37,000  Level Indianapolis Center
Fri 03:11:37 PM 38.1019 -82.6161 70° East 509 586 37,000  Level Indianapolis Center
Fri 03:12:38 PM 38.1575 -82.4258 70° East 512 589 37,000  Level Indianapolis Center
Fri 03:13:40 PM 38.2075 -82.2600 69° East 506 582 37,000  Level Indianapolis Center
Fri 03:14:42 PM 38.2575 -82.0911 69° East 511 588 37,000  Level Indianapolis Center
Fri 03:15:44 PM 38.3064 -81.9231 70° East 510 587 37,000  Level Indianapolis Center
Fri 03:16:45 PM 38.3450 -81.7536 74° East 507 583 37,000  Level Indianapolis Center
Fri 03:17:47 PM 38.3436 -81.5894 91° East 474 545 37,000  Level Indianapolis Center
Fri 03:18:49 PM 38.3375 -81.3944 92° East 466 536 37,000  Level Indianapolis Center
Fri 03:19:51 PM 38.3317 -81.2311 93° East 466 536 37,000 -194 Level Indianapolis Center
Fri 03:20:53 PM 38.3256 -81.0667 93° East 467 537 36,600 -614 Descending Indianapolis Center
Fri 03:21:19 PM 38.3233 -80.9831 92° East 466 536 36,100 -1,047 Descending Washington Center
Fri 03:22:19 PM 38.3158 -80.8186 93° East 466 536 35,100 -1,000 Descending Washington Center
Fri 03:23:19 PM 38.3083 -80.6564 93° East 461 531 34,100 -1,000 Descending Washington Center
Fri 03:24:19 PM 38.3047 -80.4894 92° East 461 531 33,100 -800 Descending Washington Center
Fri 03:25:19 PM 38.3253 -80.3428 80° East 467 537 32,500 -750 Descending Washington Center
Fri 03:26:19 PM 38.3608 -80.1781 75° East 467 537 31,600 -950 Descending Washington Center
Fri 03:27:19 PM 38.3964 -80.0133 75° East 472 543 30,600 -950 Descending Washington Center
Fri 03:28:19 PM 38.4336 -79.8486 74° East 477 549 29,700 -950 Descending Washington Center
Fri 03:29:19 PM 38.4706 -79.6811 74° East 483 556 28,700 -1,350 Descending Washington Center
Fri 03:30:19 PM 38.5122 -79.4950 74° East 491 565 27,000 -1,550 Descending Washington Center
Fri 03:31:19 PM 38.5425 -79.3319 77° East 486 559 25,600 -1,750 Descending Washington Center
Fri 03:32:19 PM 38.5706 -79.1658 78° East 486 559 23,500 -2,350 Descending Washington Center
Fri 03:33:19 PM 38.5958 -79.0106 78° East 472 543 20,900 -2,600 Descending Washington Center
Fri 03:34:19 PM 38.6211 -78.8522 78° East 453 521 18,300 -2,600 Descending Washington Center
Fri 03:35:19 PM 38.6542 -78.7100 73° East 438 504 15,700 -2,450 Descending Washington Center
Fri 03:36:19 PM 38.6869 -78.5678 74° East 421 484 13,400 -2,150 Descending Washington Center
Fri 03:37:19 PM 38.7169 -78.4414 73° East 397 457 11,400 -1,500 Descending Washington Center
Fri 03:38:19 PM 38.7614 -78.3311 63° Northeast 343 395 10,400 -1,200 Descending Washington Center
Fri 03:39:19 PM 38.8258 -78.2456 46° Northeast 337 388 9,000 -900 Descending Washington Center
Fri 03:40:19 PM 38.9083 -78.1819 31° Northeast 332 382 8,600 -550 Descending Washington Center
Fri 03:41:19 PM 38.9847 -78.1233 31° Northeast 332 382 7,900 -400 Descending Washington Center
Fri 03:42:19 PM 39.0528 -78.0614 35° Northeast 318 366 7,800 -400 Descending Washington Center
Fri 03:43:19 PM 39.0358 -77.9753 104° East 221 254 7,100 -400 Descending Washington Center
Fri 03:44:19 PM 39.0081 -77.8942 114° Southeast 215 247 7,000  Descending Washington Center
Fri 03:45:19 PM 38.9825 -77.8161 113° Southeast 233 268 7,100 50 Climbing Washington Center
Fri 03:46:19 PM 38.9631 -77.7406 108° East 238 274 7,100 -347 Level Washington Center
Fri 03:48:29 PM 39.0333 -77.5667 62° Northeast 289 333 6,000 -505 Descending Potomac TRACON
Fri 03:49:29 PM 39.1000 -77.5667 360° North 260 299 5,500 -750 Descending Potomac TRACON
Fri 03:50:29 PM 39.1833 -77.5667 360° North 264 304 4,500 -744 Descending Potomac TRACON
Fri 03:51:30 PM 39.1833 -77.4833 90° East 207 238 4,000 -347 Descending Potomac TRACON
Fri 03:52:30 PM 39.1500 -77.4500 142° Southeast 154 177 3,800 -550 Descending Potomac TRACON
Fri 03:53:30 PM 39.1167 -77.4500 180° South 142 163 2,900 -850 Descending Potomac TRACON
Fri 03:54:30 PM 39.0667 -77.4500 180° South 155 178 2,100 -750 Descending Potomac TRACON
Fri 03:55:30 PM 39.0333 -77.4667 201° Southwest 124 143 1,400 -626 Descending Potomac TRACON
Fri 03:56:25 PM 39.0000 -77.4667 180° South 117 135 900 -545 Descending Potomac TRACON

Login

Don't have an account? Register now (free) for customized features, flight alerts, and more!